sensor_id;sensor_type;location;lat;lon;timestamp;pressure;altitude;pressure_sealevel;temperature;humidity
40205;BME280;26963;42.666;23.366;2024-03-08T00:01:35;94980.41;;;6.51;74.19
40205;BME280;26963;42.666;23.366;2024-03-08T00:04:01;94978.84;;;6.50;75.63
40205;BME280;26963;42.666;23.366;2024-03-08T00:06:27;94918.72;;;6.08;75.75
40205;BME280;26963;42.666;23.366;2024-03-08T00:08:52;94950.91;;;6.32;75.82
40205;BME280;26963;42.666;23.366;2024-03-08T00:11:18;94982.78;;;6.42;74.71
40205;BME280;26963;42.666;23.366;2024-03-08T00:13:43;94968.16;;;6.29;74.27
40205;BME280;26963;42.666;23.366;2024-03-08T00:16:10;94982.78;;;6.22;74.70
40205;BME280;26963;42.666;23.366;2024-03-08T00:18:36;94961.78;;;6.20;75.88
40205;BME280;26963;42.666;23.366;2024-03-08T00:21:02;94985.50;;;6.47;75.14
40205;BME280;26963;42.666;23.366;2024-03-08T00:23:28;94962.84;;;6.34;75.56
40205;BME280;26963;42.666;23.366;2024-03-08T00:25:53;94963.41;;;6.36;73.53
40205;BME280;26963;42.666;23.366;2024-03-08T00:28:21;94950.66;;;6.28;73.66
40205;BME280;26963;42.666;23.366;2024-03-08T00:30:46;94971.09;;;6.38;75.14
40205;BME280;26963;42.666;23.366;2024-03-08T00:33:12;94975.09;;;6.41;75.52
40205;BME280;26963;42.666;23.366;2024-03-08T00:35:38;94979.63;;;6.40;76.19
40205;BME280;26963;42.666;23.366;2024-03-08T00:38:03;94974.03;;;6.36;75.41
40205;BME280;26963;42.666;23.366;2024-03-08T00:40:29;94970.03;;;6.34;75.47
40205;BME280;26963;42.666;23.366;2024-03-08T00:42:54;94968.72;;;6.26;76.01
40205;BME280;26963;42.666;23.366;2024-03-08T00:45:20;94964.44;;;6.25;77.41
40205;BME280;26963;42.666;23.366;2024-03-08T00:47:46;94972.97;;;6.27;77.81
40205;BME280;26963;42.666;23.366;2024-03-08T00:50:11;94967.09;;;6.25;77.85
40205;BME280;26963;42.666;23.366;2024-03-08T00:52:38;94964.44;;;6.25;76.70
40205;BME280;26963;42.666;23.366;2024-03-08T00:55:04;94957.03;;;6.32;75.51
40205;BME280;26963;42.666;23.366;2024-03-08T00:57:29;94928.03;;;6.15;75.81
40205;BME280;26963;42.666;23.366;2024-03-08T00:59:55;94761.94;;;5.15;77.37
40205;BME280;26963;42.666;23.366;2024-03-08T01:02:21;94877.81;;;6.09;76.19
40205;BME280;26963;42.666;23.366;2024-03-08T01:04:48;94941.91;;;6.64;76.71
40205;BME280;26963;42.666;23.366;2024-03-08T01:07:14;94941.06;;;6.74;76.17
40205;BME280;26963;42.666;23.366;2024-03-08T01:09:40;94932.59;;;6.66;73.60
40205;BME280;26963;42.666;23.366;2024-03-08T01:12:05;94880.47;;;6.40;73.50
40205;BME280;26963;42.666;23.366;2024-03-08T01:14:33;94930.44;;;6.74;74.70
40205;BME280;26963;42.666;23.366;2024-03-08T01:16:59;94896.44;;;6.60;74.25
40205;BME280;26963;42.666;23.366;2024-03-08T01:19:25;94939.19;;;6.95;72.77
40205;BME280;26963;42.666;23.366;2024-03-08T01:21:50;94892.97;;;6.55;72.27
40205;BME280;26963;42.666;23.366;2024-03-08T01:24:16;94809.03;;;6.07;72.43
40205;BME280;26963;42.666;23.366;2024-03-08T01:26:42;94910.75;;;6.75;73.97
40205;BME280;26963;42.666;23.366;2024-03-08T01:29:07;94925.38;;;6.88;73.41
40205;BME280;26963;42.666;23.366;2024-03-08T01:31:33;94897.22;;;6.56;75.12
40205;BME280;26963;42.666;23.366;2024-03-08T01:33:59;94910.25;;;6.62;72.78
40205;BME280;26963;42.666;23.366;2024-03-08T01:36:25;94929.09;;;6.76;72.77
40205;BME280;26963;42.666;23.366;2024-03-08T01:38:52;94929.94;;;6.66;73.81
40205;BME280;26963;42.666;23.366;2024-03-08T01:41:18;94915.53;;;6.67;74.50
40205;BME280;26963;42.666;23.366;2024-03-08T01:43:44;94881.00;;;6.52;73.79
40205;BME280;26963;42.666;23.366;2024-03-08T01:46:13;94895.88;;;6.74;73.68
40205;BME280;26963;42.666;23.366;2024-03-08T01:48:41;94884.72;;;6.72;73.78
40205;BME280;26963;42.666;23.366;2024-03-08T01:51:08;94842.22;;;6.41;71.29
40205;BME280;26963;42.666;23.366;2024-03-08T01:53:34;94906.50;;;6.79;71.29
40205;BME280;26963;42.666;23.366;2024-03-08T01:56:01;94912.91;;;6.78;72.70
40205;BME280;26963;42.666;23.366;2024-03-08T01:58:29;94889.75;;;6.78;72.08
40205;BME280;26963;42.666;23.366;2024-03-08T02:00:59;94894.25;;;6.88;72.28
40205;BME280;26963;42.666;23.366;2024-03-08T02:03:25;94918.44;;;7.07;73.13
40205;BME280;26963;42.666;23.366;2024-03-08T02:05:50;94916.56;;;7.08;70.30
40205;BME280;26963;42.666;23.366;2024-03-08T02:08:17;94894.25;;;6.88;70.08
40205;BME280;26963;42.666;23.366;2024-03-08T02:10:46;94873.25;;;6.81;71.27
40205;BME280;26963;42.666;23.366;2024-03-08T02:13:13;94910.16;;;7.09;71.35
40205;BME280;26963;42.666;23.366;2024-03-08T02:15:54;94912.81;;;7.19;71.54
40205;BME280;26963;42.666;23.366;2024-03-08T02:18:21;94857.06;;;6.67;70.48
40205;BME280;26963;42.666;23.366;2024-03-08T02:20:49;94903.28;;;7.02;69.97
40205;BME280;26963;42.666;23.366;2024-03-08T02:23:19;94914.97;;;6.96;71.74
40205;BME280;26963;42.666;23.366;2024-03-08T02:25:45;94836.34;;;6.59;73.14
40205;BME280;26963;42.666;23.366;2024-03-08T02:28:12;94913.06;;;7.17;72.11
40205;BME280;26963;42.666;23.366;2024-03-08T02:30:38;94902.94;;;7.25;71.77
40205;BME280;26963;42.666;23.366;2024-03-08T02:33:07;94897.41;;;7.11;69.36
40205;BME280;26963;42.666;23.366;2024-03-08T02:35:35;94924.47;;;7.33;67.98
40205;BME280;26963;42.666;23.366;2024-03-08T02:38:01;94938.88;;;7.27;69.17
40205;BME280;26963;42.666;23.366;2024-03-08T02:40:29;94845.34;;;6.74;70.59
40205;BME280;26963;42.666;23.366;2024-03-08T02:42:54;94903.78;;;7.15;69.67
40205;BME280;26963;42.666;23.366;2024-03-08T02:45:20;94931.91;;;7.37;69.99
40205;BME280;26963;42.666;23.366;2024-03-08T02:47:46;94892.38;;;6.99;66.72
40205;BME280;26963;42.666;23.366;2024-03-08T02:50:11;94844.34;;;6.49;67.38
40205;BME280;26963;42.666;23.366;2024-03-08T02:52:42;94866.63;;;6.74;69.06
40205;BME280;26963;42.666;23.366;2024-03-08T02:55:08;94878.81;;;6.95;69.81
40205;BME280;26963;42.666;23.366;2024-03-08T02:57:36;94926.59;;;7.37;68.51
40205;BME280;26963;42.666;23.366;2024-03-08T03:00:02;94918.41;;;7.17;68.12
40205;BME280;26963;42.666;23.366;2024-03-08T03:02:29;94931.44;;;7.14;66.30
40205;BME280;26963;42.666;23.366;2024-03-08T03:04:55;94940.53;;;6.97;68.43
40205;BME280;26963;42.666;23.366;2024-03-08T03:07:21;94922.19;;;6.96;70.20
40205;BME280;26963;42.666;23.366;2024-03-08T03:09:47;94928.78;;;7.14;68.32
40205;BME280;26963;42.666;23.366;2024-03-08T03:12:12;94944.69;;;7.29;65.89
40205;BME280;26963;42.666;23.366;2024-03-08T03:14:39;94893.44;;;6.88;63.97
40205;BME280;26963;42.666;23.366;2024-03-08T03:17:05;94850.16;;;6.56;63.49
40205;BME280;26963;42.666;23.366;2024-03-08T03:19:31;94947.72;;;7.02;63.90
40205;BME280;26963;42.666;23.366;2024-03-08T03:21:56;94957.00;;;7.15;63.17
40205;BME280;26963;42.666;23.366;2024-03-08T03:24:23;94946.88;;;7.22;63.15
40205;BME280;26963;42.666;23.366;2024-03-08T03:26:49;94935.44;;;7.16;64.09
40205;BME280;26963;42.666;23.366;2024-03-08T03:29:15;94947.94;;;7.16;62.10
40205;BME280;26963;42.666;23.366;2024-03-08T03:31:42;94949.03;;;7.05;62.73
40205;BME280;26963;42.666;23.366;2024-03-08T03:34:12;94947.97;;;7.06;64.19
40205;BME280;26963;42.666;23.366;2024-03-08T03:36:38;94930.44;;;6.94;62.65
40205;BME280;26963;42.666;23.366;2024-03-08T03:39:08;94907.56;;;6.83;62.61
40205;BME280;26963;42.666;23.366;2024-03-08T03:41:44;94956.41;;;7.23;63.05
40205;BME280;26963;42.666;23.366;2024-03-08T03:44:11;94963.88;;;7.26;61.30
40205;BME280;26963;42.666;23.366;2024-03-08T03:46:37;94967.88;;;7.29;62.02
40205;BME280;26963;42.666;23.366;2024-03-08T03:49:02;94900.09;;;6.90;61.41
40205;BME280;26963;42.666;23.366;2024-03-08T03:51:29;94935.16;;;7.13;62.08
40205;BME280;26963;42.666;23.366;2024-03-08T03:53:55;94948.97;;;7.30;62.53
40205;BME280;26963;42.666;23.366;2024-03-08T03:56:26;94946.56;;;7.29;62.43
40205;BME280;26963;42.666;23.366;2024-03-08T03:58:52;94912.28;;;7.17;61.22
40205;BME280;26963;42.666;23.366;2024-03-08T04:01:18;94960.09;;;7.48;60.82
40205;BME280;26963;42.666;23.366;2024-03-08T04:03:44;94957.16;;;7.49;61.10
40205;BME280;26963;42.666;23.366;2024-03-08T04:06:10;94968.63;;;7.45;60.43
40205;BME280;26963;42.666;23.366;2024-03-08T04:08:36;94973.09;;;7.55;60.82
40205;BME280;26963;42.666;23.366;2024-03-08T04:11:01;94977.91;;;7.58;60.89
40205;BME280;26963;42.666;23.366;2024-03-08T04:13:28;94954.81;;;7.38;59.97
40205;BME280;26963;42.666;23.366;2024-03-08T04:15:53;94959.56;;;7.41;60.70
40205;BME280;26963;42.666;23.366;2024-03-08T04:18:19;94988.81;;;7.56;60.67
40205;BME280;26963;42.666;23.366;2024-03-08T04:20:44;94927.72;;;7.10;60.04
40205;BME280;26963;42.666;23.366;2024-03-08T04:23:10;94991.47;;;7.51;60.23
40205;BME280;26963;42.666;23.366;2024-03-08T04:25:36;94917.63;;;7.01;60.47
40205;BME280;26963;42.666;23.366;2024-03-08T04:28:02;94788.56;;;6.13;60.27
40205;BME280;26963;42.666;23.366;2024-03-08T04:30:27;94956.41;;;7.23;59.91
40205;BME280;26963;42.666;23.366;2024-03-08T04:32:54;94968.13;;;7.32;60.67
40205;BME280;26963;42.666;23.366;2024-03-08T04:35:19;95007.75;;;7.49;59.75
40205;BME280;26963;42.666;23.366;2024-03-08T04:37:46;95000.56;;;7.50;60.07
40205;BME280;26963;42.666;23.366;2024-03-08T04:40:11;95001.63;;;7.44;59.77
40205;BME280;26963;42.666;23.366;2024-03-08T04:42:39;95008.00;;;7.48;59.18
40205;BME280;26963;42.666;23.366;2024-03-08T04:45:05;95013.88;;;7.55;59.26
40205;BME280;26963;42.666;23.366;2024-03-08T04:47:33;94946.06;;;7.16;59.39
40205;BME280;26963;42.666;23.366;2024-03-08T04:49:59;94980.63;;;7.27;59.12
40205;BME280;26963;42.666;23.366;2024-03-08T04:52:25;94997.41;;;7.27;59.40
40205;BME280;26963;42.666;23.366;2024-03-08T04:55:00;94951.97;;;6.88;59.67
40205;BME280;26963;42.666;23.366;2024-03-08T04:57:25;95022.44;;;7.26;60.27
40205;BME280;26963;42.666;23.366;2024-03-08T04:59:51;94935.75;;;6.63;60.44
40205;BME280;26963;42.666;23.366;2024-03-08T05:02:16;95010.47;;;7.13;61.01
40205;BME280;26963;42.666;23.366;2024-03-08T05:04:43;95018.19;;;7.10;61.10
40205;BME280;26963;42.666;23.366;2024-03-08T05:07:08;95013.41;;;7.17;61.72
40205;BME280;26963;42.666;23.366;2024-03-08T05:09:35;94956.25;;;6.73;60.70
40205;BME280;26963;42.666;23.366;2024-03-08T05:12:01;95011.25;;;7.14;60.23
40205;BME280;26963;42.666;23.366;2024-03-08T05:14:27;95025.88;;;7.22;59.92
40205;BME280;26963;42.666;23.366;2024-03-08T05:16:53;95040.50;;;7.34;59.92
40205;BME280;26963;42.666;23.366;2024-03-08T05:19:19;95026.69;;;7.32;60.58
40205;BME280;26963;42.666;23.366;2024-03-08T05:21:49;95038.34;;;7.47;59.95
40205;BME280;26963;42.666;23.366;2024-03-08T05:24:16;95042.63;;;7.43;60.20
40205;BME280;26963;42.666;23.366;2024-03-08T05:26:42;95027.22;;;7.09;61.93
40205;BME280;26963;42.666;23.366;2024-03-08T05:29:08;95051.19;;;6.93;63.16
40205;BME280;26963;42.666;23.366;2024-03-08T05:31:50;95059.69;;;6.85;64.24
40205;BME280;26963;42.666;23.366;2024-03-08T05:34:17;95056.22;;;6.74;64.80
40205;BME280;26963;42.666;23.366;2024-03-08T05:36:45;95065.00;;;6.75;64.88
40205;BME280;26963;42.666;23.366;2024-03-08T05:39:16;95010.19;;;6.43;65.14
40205;BME280;26963;42.666;23.366;2024-03-08T05:41:45;95067.94;;;6.83;65.22
40205;BME280;26963;42.666;23.366;2024-03-08T05:44:12;95075.91;;;6.78;65.87
40205;BME280;26963;42.666;23.366;2024-03-08T05:46:39;95083.59;;;6.69;66.60
40205;BME280;26963;42.666;23.366;2024-03-08T05:49:05;95071.34;;;6.53;66.53
40205;BME280;26963;42.666;23.366;2024-03-08T05:51:35;95080.66;;;6.61;66.62
40205;BME280;26963;42.666;23.366;2024-03-08T05:54:04;95053.22;;;6.40;66.96
40205;BME280;26963;42.666;23.366;2024-03-08T05:56:35;95066.00;;;6.38;67.13
40205;BME280;26963;42.666;23.366;2024-03-08T05:59:01;95066.50;;;6.34;67.02
40205;BME280;26963;42.666;23.366;2024-03-08T06:01:28;95104.25;;;6.42;66.85
40205;BME280;26963;42.666;23.366;2024-03-08T06:03:55;95088.28;;;6.31;67.32
40205;BME280;26963;42.666;23.366;2024-03-08T06:06:24;95111.16;;;6.32;67.04
40205;BME280;26963;42.666;23.366;2024-03-08T06:08:50;95103.19;;;6.38;66.51
40205;BME280;26963;42.666;23.366;2024-03-08T06:11:17;95100.53;;;6.32;66.95
40205;BME280;26963;42.666;23.366;2024-03-08T06:13:43;95119.41;;;6.36;67.00
40205;BME280;26963;42.666;23.366;2024-03-08T06:16:09;95095.19;;;6.22;66.77
40205;BME280;26963;42.666;23.366;2024-03-08T06:18:35;94998.75;;;5.63;66.53
40205;BME280;26963;42.666;23.366;2024-03-08T06:21:12;95004.59;;;5.60;66.34
40205;BME280;26963;42.666;23.366;2024-03-08T06:23:38;95104.72;;;6.23;67.46
40205;BME280;26963;42.666;23.366;2024-03-08T06:26:04;95035.47;;;5.82;67.10
40205;BME280;26963;42.666;23.366;2024-03-08T06:28:30;95087.72;;;6.19;65.28
40205;BME280;26963;42.666;23.366;2024-03-08T06:30:58;95127.63;;;6.40;66.45
40205;BME280;26963;42.666;23.366;2024-03-08T06:33:24;95086.34;;;6.06;66.54
40205;BME280;26963;42.666;23.366;2024-03-08T06:35:54;95105.78;;;6.17;66.63
40205;BME280;26963;42.666;23.366;2024-03-08T06:38:26;95111.38;;;6.26;66.92
40205;BME280;26963;42.666;23.366;2024-03-08T06:40:52;95136.16;;;6.42;65.93
40205;BME280;26963;42.666;23.366;2024-03-08T06:43:18;95028.88;;;5.90;66.22
40205;BME280;26963;42.666;23.366;2024-03-08T06:46:02;95106.69;;;6.53;65.28
40205;BME280;26963;42.666;23.366;2024-03-08T06:48:29;95129.34;;;6.77;64.36
40205;BME280;26963;42.666;23.366;2024-03-08T06:50:55;95089.94;;;6.53;63.32
40205;BME280;26963;42.666;23.366;2024-03-08T06:53:24;95134.69;;;6.82;63.07
40205;BME280;26963;42.666;23.366;2024-03-08T06:55:50;95135.72;;;6.76;62.62
40205;BME280;26963;42.666;23.366;2024-03-08T06:58:16;95139.19;;;6.76;62.14
40205;BME280;26963;42.666;23.366;2024-03-08T07:00:41;95136.28;;;6.73;61.97
40205;BME280;26963;42.666;23.366;2024-03-08T07:03:08;95068.13;;;6.46;61.31
40205;BME280;26963;42.666;23.366;2024-03-08T07:05:37;95133.09;;;6.91;61.55
40205;BME280;26963;42.666;23.366;2024-03-08T07:08:03;95141.63;;;6.93;60.38
40205;BME280;26963;42.666;23.366;2024-03-08T07:10:29;95112.31;;;6.67;60.08
40205;BME280;26963;42.666;23.366;2024-03-08T07:12:55;95069.69;;;6.26;60.42
40205;BME280;26963;42.666;23.366;2024-03-08T07:15:20;95059.72;;;5.96;60.74
40205;BME280;26963;42.666;23.366;2024-03-08T07:17:47;95157.94;;;6.39;61.41
40205;BME280;26963;42.666;23.366;2024-03-08T07:20:13;95103.53;;;5.93;61.79
40205;BME280;26963;42.666;23.366;2024-03-08T07:22:41;95069.84;;;5.56;62.24
40205;BME280;26963;42.666;23.366;2024-03-08T07:25:07;95148.78;;;6.09;62.75
40205;BME280;26963;42.666;23.366;2024-03-08T07:27:33;95150.63;;;6.08;63.20
40205;BME280;26963;42.666;23.366;2024-03-08T07:30:00;95155.75;;;6.20;63.68
40205;BME280;26963;42.666;23.366;2024-03-08T07:32:26;95158.44;;;6.35;62.67
40205;BME280;26963;42.666;23.366;2024-03-08T07:34:54;95154.16;;;6.29;63.10
40205;BME280;26963;42.666;23.366;2024-03-08T07:37:20;95139.59;;;6.37;62.61
40205;BME280;26963;42.666;23.366;2024-03-08T07:39:46;95161.22;;;6.61;62.65
40205;BME280;26963;42.666;23.366;2024-03-08T07:42:12;95155.94;;;6.72;62.72
40205;BME280;26963;42.666;23.366;2024-03-08T07:44:38;95158.09;;;6.95;62.01
40205;BME280;26963;42.666;23.366;2024-03-08T07:47:04;95142.13;;;6.80;61.67
40205;BME280;26963;42.666;23.366;2024-03-08T07:49:30;95108.84;;;6.62;61.17
40205;BME280;26963;42.666;23.366;2024-03-08T07:51:56;95158.63;;;6.87;61.44
40205;BME280;26963;42.666;23.366;2024-03-08T07:54:23;95161.78;;;6.74;62.09
40205;BME280;26963;42.666;23.366;2024-03-08T07:56:48;95092.81;;;6.31;62.41
40205;BME280;26963;42.666;23.366;2024-03-08T07:59:16;95091.53;;;6.44;62.53
40205;BME280;26963;42.666;23.366;2024-03-08T08:01:42;95122.44;;;6.86;62.29
40205;BME280;26963;42.666;23.366;2024-03-08T08:04:09;95108.66;;;6.99;61.67
40205;BME280;26963;42.666;23.366;2024-03-08T08:06:40;95146.47;;;7.43;59.88
40205;BME280;26963;42.666;23.366;2024-03-08T08:09:08;95160.56;;;7.69;59.26
40205;BME280;26963;42.666;23.366;2024-03-08T08:11:54;95136.31;;;7.65;59.07
40205;BME280;26963;42.666;23.366;2024-03-08T08:14:20;95142.19;;;7.73;59.55
40205;BME280;26963;42.666;23.366;2024-03-08T08:16:47;95159.44;;;8.01;58.03
40205;BME280;26963;42.666;23.366;2024-03-08T08:19:14;95085.16;;;7.74;57.55
40205;BME280;26963;42.666;23.366;2024-03-08T08:21:41;95132.72;;;8.22;56.79
40205;BME280;26963;42.666;23.366;2024-03-08T08:24:07;95121.50;;;8.35;56.33
40205;BME280;26963;42.666;23.366;2024-03-08T08:26:33;95105.72;;;8.49;55.09
40205;BME280;26963;42.666;23.366;2024-03-08T08:28:59;95082.22;;;8.61;53.36
40205;BME280;26963;42.666;23.366;2024-03-08T08:31:25;95093.25;;;8.84;52.75
40205;BME280;26963;42.666;23.366;2024-03-08T08:33:51;95086.06;;;8.85;51.92
40205;BME280;26963;42.666;23.366;2024-03-08T08:36:26;95113.50;;;9.30;52.45
40205;BME280;26963;42.666;23.366;2024-03-08T08:38:51;95129.06;;;9.82;51.69
40205;BME280;26963;42.666;23.366;2024-03-08T08:41:20;95086.06;;;9.83;50.13
40205;BME280;26963;42.666;23.366;2024-03-08T08:43:47;95159.16;;;10.22;49.23
40205;BME280;26963;42.666;23.366;2024-03-08T08:46:17;95121.34;;;10.04;49.68
40205;BME280;26963;42.666;23.366;2024-03-08T08:48:44;95137.34;;;10.39;49.53
40205;BME280;26963;42.666;23.366;2024-03-08T08:51:12;95068.00;;;10.18;48.58
40205;BME280;26963;42.666;23.366;2024-03-08T08:53:39;95111.13;;;10.79;47.81
40205;BME280;26963;42.666;23.366;2024-03-08T08:56:14;95120.97;;;10.65;46.68
40205;BME280;26963;42.666;23.366;2024-03-08T08:58:40;95132.31;;;10.56;47.50
40205;BME280;26963;42.666;23.366;2024-03-08T09:01:09;95128.13;;;10.50;47.93
40205;BME280;26963;42.666;23.366;2024-03-08T09:03:37;95121.34;;;10.77;48.25
40205;BME280;26963;42.666;23.366;2024-03-08T09:06:07;95136.63;;;11.34;47.65
40205;BME280;26963;42.666;23.366;2024-03-08T09:08:36;94906.25;;;10.35;45.49
40205;BME280;26963;42.666;23.366;2024-03-08T09:11:01;95123.22;;;12.00;44.60
40205;BME280;26963;42.666;23.366;2024-03-08T09:13:27;95124.53;;;12.16;44.09
40205;BME280;26963;42.666;23.366;2024-03-08T09:15:53;95117.66;;;12.38;43.21
40205;BME280;26963;42.666;23.366;2024-03-08T09:18:18;95124.91;;;12.23;42.48
40205;BME280;26963;42.666;23.366;2024-03-08T09:20:45;95126.72;;;12.42;42.56
40205;BME280;26963;42.666;23.366;2024-03-08T09:23:11;95096.75;;;12.63;41.57
40205;BME280;26963;42.666;23.366;2024-03-08T09:25:36;95052.69;;;12.78;41.53
40205;BME280;26963;42.666;23.366;2024-03-08T09:28:03;95120.13;;;13.72;40.61
40205;BME280;26963;42.666;23.366;2024-03-08T09:30:28;95024.31;;;13.31;39.47
40205;BME280;26963;42.666;23.366;2024-03-08T09:32:54;95107.75;;;13.71;40.45
40205;BME280;26963;42.666;23.366;2024-03-08T09:35:20;95108.09;;;13.47;40.93
40205;BME280;26963;42.666;23.366;2024-03-08T09:37:45;95087.94;;;12.99;40.53
40205;BME280;26963;42.666;23.366;2024-03-08T09:40:13;95083.88;;;12.37;41.02
40205;BME280;26963;42.666;23.366;2024-03-08T09:42:43;95115.09;;;12.33;42.19
40205;BME280;26963;42.666;23.366;2024-03-08T09:45:11;95101.69;;;11.72;43.18
40205;BME280;26963;42.666;23.366;2024-03-08T09:47:44;95115.16;;;11.53;44.32
40205;BME280;26963;42.666;23.366;2024-03-08T09:50:10;95120.50;;;11.53;44.48
40205;BME280;26963;42.666;23.366;2024-03-08T09:52:41;95021.34;;;11.06;44.05
40205;BME280;26963;42.666;23.366;2024-03-08T09:55:10;95097.22;;;11.67;43.66
40205;BME280;26963;42.666;23.366;2024-03-08T09:57:39;95121.44;;;11.76;43.10
40205;BME280;26963;42.666;23.366;2024-03-08T10:00:06;95087.63;;;11.14;43.81
40205;BME280;26963;42.666;23.366;2024-03-08T10:02:47;95052.03;;;10.37;44.44
40205;BME280;26963;42.666;23.366;2024-03-08T10:05:16;95034.03;;;10.00;45.50
40205;BME280;26963;42.666;23.366;2024-03-08T10:07:42;95064.03;;;10.16;45.46
40205;BME280;26963;42.666;23.366;2024-03-08T10:10:08;95102.16;;;10.26;46.04
40205;BME280;26963;42.666;23.366;2024-03-08T10:12:36;95124.47;;;10.41;46.39
40205;BME280;26963;42.666;23.366;2024-03-08T10:15:02;95124.44;;;10.65;46.16
40205;BME280;26963;42.666;23.366;2024-03-08T10:17:28;95119.47;;;10.97;46.14
40205;BME280;26963;42.666;23.366;2024-03-08T10:19:57;95109.75;;;10.82;45.27
40205;BME280;26963;42.666;23.366;2024-03-08T10:22:25;95116.94;;;10.86;46.03
40205;BME280;26963;42.666;23.366;2024-03-08T10:24:51;95051.09;;;10.47;45.84
40205;BME280;26963;42.666;23.366;2024-03-08T10:27:17;94905.91;;;9.41;45.49
40205;BME280;26963;42.666;23.366;2024-03-08T10:29:47;95101.16;;;10.66;46.21
40205;BME280;26963;42.666;23.366;2024-03-08T10:32:13;95101.38;;;10.88;45.73
40205;BME280;26963;42.666;23.366;2024-03-08T10:34:38;95080.81;;;11.03;45.98
40205;BME280;26963;42.666;23.366;2024-03-08T10:37:04;95105.63;;;11.61;45.40
40205;BME280;26963;42.666;23.366;2024-03-08T10:39:35;95058.28;;;11.70;43.27
40205;BME280;26963;42.666;23.366;2024-03-08T10:42:05;94994.16;;;11.59;42.97
40205;BME280;26963;42.666;23.366;2024-03-08T10:45:12;95092.00;;;12.60;43.26
40205;BME280;26963;42.666;23.366;2024-03-08T10:47:38;95067.47;;;12.52;42.07
40205;BME280;26963;42.666;23.366;2024-03-08T10:50:18;95025.50;;;12.06;41.94
40205;BME280;26963;42.666;23.366;2024-03-08T10:52:51;95004.78;;;11.79;41.39
40205;BME280;26963;42.666;23.366;2024-03-08T10:55:18;95098.47;;;12.03;41.93
40205;BME280;26963;42.666;23.366;2024-03-08T10:57:46;95064.75;;;11.69;42.80
40205;BME280;26963;42.666;23.366;2024-03-08T11:00:13;95078.06;;;11.88;43.60
40205;BME280;26963;42.666;23.366;2024-03-08T11:02:43;95092.22;;;12.07;42.47
40205;BME280;26963;42.666;23.366;2024-03-08T11:05:38;95089.44;;;12.13;42.02
40205;BME280;26963;42.666;23.366;2024-03-08T11:08:19;95077.03;;;12.03;41.72
40205;BME280;26963;42.666;23.366;2024-03-08T11:10:51;95075.28;;;11.79;43.06
40205;BME280;26963;42.666;23.366;2024-03-08T11:13:37;95069.47;;;11.44;43.58
40205;BME280;26963;42.666;23.366;2024-03-08T11:16:10;95073.38;;;11.19;43.95
40205;BME280;26963;42.666;23.366;2024-03-08T11:18:36;95075.91;;;10.91;44.21
40205;BME280;26963;42.666;23.366;2024-03-08T11:21:08;94838.09;;;9.18;44.90
40205;BME280;26963;42.666;23.366;2024-03-08T11:23:38;95057.34;;;10.62;44.89
40205;BME280;26963;42.666;23.366;2024-03-08T11:26:25;95076.94;;;10.76;44.29
40205;BME280;26963;42.666;23.366;2024-03-08T11:28:51;95052.41;;;10.69;44.85
40205;BME280;26963;42.666;23.366;2024-03-08T11:33:47;95046.06;;;11.50;43.25
40205;BME280;26963;42.666;23.366;2024-03-08T11:36:20;94977.25;;;11.17;43.00
40205;BME280;26963;42.666;23.366;2024-03-08T11:38:51;95060.22;;;11.83;42.43
40205;BME280;26963;42.666;23.366;2024-03-08T11:41:22;95066.25;;;11.75;42.41
40205;BME280;26963;42.666;23.366;2024-03-08T11:43:50;94992.22;;;11.32;42.30
40205;BME280;26963;42.666;23.366;2024-03-08T11:46:26;95024.25;;;11.70;42.43
40205;BME280;26963;42.666;23.366;2024-03-08T11:48:54;94979.88;;;11.64;43.24
40205;BME280;26963;42.666;23.366;2024-03-08T11:51:21;95030.84;;;12.06;42.11
40205;BME280;26963;42.666;23.366;2024-03-08T11:53:49;95058.16;;;12.08;41.24
40205;BME280;26963;42.666;23.366;2024-03-08T11:56:16;95052.75;;;11.80;41.07
40205;BME280;26963;42.666;23.366;2024-03-08T11:58:42;95046.78;;;11.55;41.59
40205;BME280;26963;42.666;23.366;2024-03-08T12:01:17;95045.41;;;11.72;41.86
40205;BME280;26963;42.666;23.366;2024-03-08T12:03:43;95046.09;;;11.91;42.01
40205;BME280;26963;42.666;23.366;2024-03-08T12:06:10;95040.66;;;12.11;40.70
40205;BME280;26963;42.666;23.366;2024-03-08T12:08:36;95044.25;;;12.06;41.43
40205;BME280;26963;42.666;23.366;2024-03-08T12:11:04;95035.38;;;11.91;41.19
40205;BME280;26963;42.666;23.366;2024-03-08T12:13:31;95029.72;;;11.79;42.15
40205;BME280;26963;42.666;23.366;2024-03-08T12:16:01;95038.97;;;11.73;41.94
40205;BME280;26963;42.666;23.366;2024-03-08T12:18:33;95010.22;;;11.46;41.53
40205;BME280;26963;42.666;23.366;2024-03-08T12:21:10;95027.19;;;11.41;41.72
40205;BME280;26963;42.666;23.366;2024-03-08T12:23:37;94991.59;;;10.55;42.84
40205;BME280;26963;42.666;23.366;2024-03-08T12:26:15;95001.53;;;10.31;44.69
40205;BME280;26963;42.666;23.366;2024-03-08T12:28:42;95002.81;;;10.14;44.59
40205;BME280;26963;42.666;23.366;2024-03-08T12:31:13;94937.97;;;9.84;43.91
40205;BME280;26963;42.666;23.366;2024-03-08T12:33:53;95043.38;;;10.65;43.26
40205;BME280;26963;42.666;23.366;2024-03-08T12:36:20;95025.50;;;10.60;43.48
40205;BME280;26963;42.666;23.366;2024-03-08T12:38:49;95046.19;;;10.92;43.56
40205;BME280;26963;42.666;23.366;2024-03-08T12:41:18;95031.28;;;11.19;42.28
40205;BME280;26963;42.666;23.366;2024-03-08T12:43:45;95014.84;;;11.26;42.97
40205;BME280;26963;42.666;23.366;2024-03-08T12:46:21;94900.47;;;10.66;42.16
40205;BME280;26963;42.666;23.366;2024-03-08T12:48:51;94966.03;;;11.15;42.33
40205;BME280;26963;42.666;23.366;2024-03-08T12:51:20;95021.47;;;11.48;42.17
40205;BME280;26963;42.666;23.366;2024-03-08T12:53:46;95028.19;;;11.45;42.72
40205;BME280;26963;42.666;23.366;2024-03-08T12:56:33;95022.03;;;11.45;42.11
40205;BME280;26963;42.666;23.366;2024-03-08T12:59:00;95021.09;;;11.21;42.21
40205;BME280;26963;42.666;23.366;2024-03-08T13:01:26;95018.59;;;11.11;42.18
40205;BME280;26963;42.666;23.366;2024-03-08T13:03:53;95013.03;;;11.07;42.54